Time;durP1;ratioP1;P1;durP2;ratioP2;P2;SDS_P1;SDS_P2;PMS_P1;PMS_P2;Temp;Humidity;BMP_temperature;BMP_pressure;BME280_temperature;BME280_humidity;BME280_pressure;Samples;Min_cycle;Max_cycle;Signal;HPM_P1;HPM_P2
2024/02/06 00:02:23;;;;;;;6.97;5.50;;;;;;;;;;5038924;28;20394;-79
2024/02/06 00:04:49;;;;;;;7.53;5.68;;;;;;;;;;5038632;28;20414;-79
2024/02/06 00:07:15;;;;;;;8.33;5.77;;;;;;;;;;5039074;28;20383;-79
2024/02/06 00:09:40;;;;;;;7.70;6.15;;;;;;;;;;5039188;28;20888;-79
2024/02/06 00:12:09;;;;;;;9.55;6.63;;;;;;;;;;5038709;28;20403;-79
2024/02/06 00:14:35;;;;;;;9.07;6.43;;;;;;;;;;5038215;28;21089;-80
2024/02/06 00:17:01;;;;;;;6.90;5.20;;;;;;;;;;5038713;28;20379;-79
2024/02/06 00:19:27;;;;;;;6.72;5.57;;;;;;;;;;5038227;28;20458;-79
2024/02/06 00:21:53;;;;;;;8.10;5.57;;;;;;;;;;5038759;28;20419;-79
2024/02/06 00:24:19;;;;;;;11.35;6.07;;;;;;;;;;5039187;28;20409;-79
2024/02/06 00:26:45;;;;;;;9.50;6.20;;;;;;;;;;5038158;28;20392;-79
2024/02/06 00:29:11;;;;;;;8.38;6.30;;;;;;;;;;5038615;28;20379;-79
2024/02/06 00:31:37;;;;;;;11.70;8.77;;;;;;;;;;5038211;28;20411;-79
2024/02/06 00:34:03;;;;;;;13.02;8.88;;;;;;;;;;5038222;28;20383;-79
2024/02/06 00:36:29;;;;;;;11.95;9.10;;;;;;;;;;5038130;28;20489;-79
2024/02/06 00:38:55;;;;;;;20.83;14.00;;;;;;;;;;5037558;28;20842;-79
2024/02/06 00:41:21;;;;;;;22.63;14.38;;;;;;;;;;5037615;28;20390;-79
2024/02/06 00:43:48;;;;;;;20.27;14.77;;;;;;;;;;5038080;28;20486;-79
2024/02/06 00:46:14;;;;;;;21.13;14.50;;;;;;;;;;5038617;28;20437;-79
2024/02/06 00:48:40;;;;;;;19.77;14.55;;;;;;;;;;5038095;28;20449;-80
2024/02/06 00:51:08;;;;;;;18.67;14.57;;;;;;;;;;5038223;28;20877;-79
2024/02/06 00:53:34;;;;;;;19.15;14.00;;;;;;;;;;5037841;28;20722;-79
2024/02/06 00:56:00;;;;;;;18.25;14.07;;;;;;;;;;5035402;28;20399;-79
2024/02/06 00:58:26;;;;;;;18.97;14.17;;;;;;;;;;5036876;28;20411;-79
2024/02/06 01:00:52;;;;;;;18.52;13.45;;;;;;;;;;5038128;28;20428;-79
2024/02/06 01:03:18;;;;;;;17.58;13.68;;;;;;;;;;5038128;28;20758;-80
2024/02/06 01:05:44;;;;;;;19.47;13.80;;;;;;;;;;5033540;28;20442;-78
2024/02/06 01:08:10;;;;;;;18.90;14.00;;;;;;;;;;5035982;28;20396;-78
2024/02/06 01:10:36;;;;;;;20.95;13.77;;;;;;;;;;5037176;28;20415;-79
2024/02/06 01:13:02;;;;;;;20.13;14.85;;;;;;;;;;5036966;28;20385;-78
2024/02/06 01:15:28;;;;;;;19.48;14.52;;;;;;;;;;5036585;28;20382;-79
2024/02/06 01:17:54;;;;;;;22.00;14.40;;;;;;;;;;5033544;28;20383;-79
2024/02/06 01:20:20;;;;;;;20.55;14.57;;;;;;;;;;5034183;28;20375;-79
2024/02/06 01:22:46;;;;;;;20.48;14.65;;;;;;;;;;5037348;28;20421;-78
2024/02/06 01:25:12;;;;;;;18.42;14.98;;;;;;;;;;5036875;28;20403;-79
2024/02/06 01:27:38;;;;;;;20.30;14.17;;;;;;;;;;5037072;28;20386;-79
2024/02/06 01:30:05;;;;;;;19.17;14.50;;;;;;;;;;5037098;28;20388;-79
2024/02/06 01:32:31;;;;;;;21.77;14.43;;;;;;;;;;5036811;28;20458;-78
2024/02/06 01:34:57;;;;;;;19.88;13.70;;;;;;;;;;5037443;28;20383;-79
2024/02/06 01:37:24;;;;;;;22.10;14.57;;;;;;;;;;5037296;28;20913;-79
2024/02/06 01:39:50;;;;;;;20.07;14.30;;;;;;;;;;5037169;28;20407;-79
2024/02/06 01:42:16;;;;;;;19.35;14.38;;;;;;;;;;5037066;28;20391;-78
2024/02/06 01:44:42;;;;;;;18.48;14.27;;;;;;;;;;5037263;28;20390;-79
2024/02/06 01:47:09;;;;;;;20.17;15.15;;;;;;;;;;5036936;28;20397;-79
2024/02/06 01:49:36;;;;;;;18.45;14.52;;;;;;;;;;5037300;28;20433;-78
2024/02/06 01:52:02;;;;;;;21.95;14.85;;;;;;;;;;5036902;28;20796;-78
2024/02/06 01:54:29;;;;;;;19.70;13.63;;;;;;;;;;5036906;28;20387;-78
2024/02/06 01:56:55;;;;;;;19.02;14.23;;;;;;;;;;5037492;28;20379;-79
2024/02/06 01:59:21;;;;;;;15.68;13.25;;;;;;;;;;5037071;28;20387;-78
2024/02/06 02:01:48;;;;;;;17.25;12.98;;;;;;;;;;5036915;28;20907;-79
2024/02/06 02:04:14;;;;;;;16.67;13.20;;;;;;;;;;5036905;28;20403;-78
2024/02/06 02:06:40;;;;;;;20.08;13.48;;;;;;;;;;5036726;28;20398;-78
2024/02/06 02:09:08;;;;;;;16.20;13.68;;;;;;;;;;5036283;28;20796;-79
2024/02/06 02:11:34;;;;;;;19.70;12.95;;;;;;;;;;5036918;28;20407;-78
2024/02/06 02:14:00;;;;;;;17.02;13.15;;;;;;;;;;5036450;28;20834;-79
2024/02/06 02:16:26;;;;;;;16.13;12.57;;;;;;;;;;5036845;28;20437;-78
2024/02/06 02:18:53;;;;;;;16.02;12.68;;;;;;;;;;5036570;28;20367;-78
2024/02/06 02:21:18;;;;;;;15.85;12.50;;;;;;;;;;5038085;28;20393;-78
2024/02/06 02:23:45;;;;;;;13.75;12.18;;;;;;;;;;5036693;28;20418;-78
2024/02/06 02:26:12;;;;;;;15.33;12.07;;;;;;;;;;5036333;28;20744;-78
2024/02/06 02:28:39;;;;;;;14.30;11.35;;;;;;;;;;5036498;28;20466;-78
2024/02/06 02:31:06;;;;;;;13.90;11.80;;;;;;;;;;5037660;28;20470;-79
2024/02/06 02:33:32;;;;;;;14.05;11.95;;;;;;;;;;5026809;28;20734;-78
2024/02/06 02:35:58;;;;;;;16.63;11.53;;;;;;;;;;5036951;28;20397;-79
2024/02/06 02:38:24;;;;;;;15.23;11.15;;;;;;;;;;5037062;28;20721;-78
2024/02/06 02:40:50;;;;;;;13.68;11.30;;;;;;;;;;5036557;28;20846;-78
2024/02/06 02:43:17;;;;;;;13.10;11.05;;;;;;;;;;5036916;28;20387;-79
2024/02/06 02:45:43;;;;;;;13.43;10.57;;;;;;;;;;5037126;28;20382;-78
2024/02/06 02:48:09;;;;;;;11.07;9.95;;;;;;;;;;5036864;28;20394;-78
2024/02/06 02:50:35;;;;;;;14.40;10.43;;;;;;;;;;5036857;28;20857;-79
2024/02/06 02:53:01;;;;;;;11.48;10.18;;;;;;;;;;5037170;28;20434;-79
2024/02/06 02:55:27;;;;;;;10.73;9.63;;;;;;;;;;5036394;28;20383;-79
2024/02/06 02:57:53;;;;;;;10.80;9.35;;;;;;;;;;5036266;28;20785;-79
2024/02/06 03:00:21;;;;;;;11.43;9.45;;;;;;;;;;5036434;28;20387;-78
2024/02/06 03:02:47;;;;;;;11.30;9.90;;;;;;;;;;5036623;28;20836;-78
2024/02/06 03:05:13;;;;;;;12.40;9.98;;;;;;;;;;5036569;28;20387;-79
2024/02/06 03:07:39;;;;;;;10.85;9.75;;;;;;;;;;5036206;28;20745;-79
2024/02/06 03:10:05;;;;;;;10.60;9.48;;;;;;;;;;5036848;28;20407;-78
2024/02/06 03:12:31;;;;;;;11.20;9.40;;;;;;;;;;5036034;28;20904;-78
2024/02/06 03:15:01;;;;;;;10.40;9.40;;;;;;;;;;5036073;28;20380;-78
2024/02/06 03:17:27;;;;;;;11.95;10.07;;;;;;;;;;5035739;28;20753;-79
2024/02/06 03:19:54;;;;;;;10.32;9.32;;;;;;;;;;5040023;28;20870;-79
2024/02/06 03:22:23;;;;;;;10.60;9.60;;;;;;;;;;5040006;28;20387;-78
2024/02/06 03:24:49;;;;;;;10.57;9.45;;;;;;;;;;5040039;28;20375;-78
2024/02/06 03:27:16;;;;;;;10.80;9.80;;;;;;;;;;5039990;28;20458;-78
2024/02/06 03:29:45;;;;;;;10.32;9.30;;;;;;;;;;5040204;28;20383;-78
2024/02/06 03:32:11;;;;;;;10.73;9.13;;;;;;;;;;5040097;28;20407;-78
2024/02/06 03:34:37;;;;;;;10.18;9.23;;;;;;;;;;5040285;28;20446;-78
2024/02/06 03:37:03;;;;;;;10.27;9.23;;;;;;;;;;5039857;28;20780;-78
2024/02/06 03:39:29;;;;;;;12.48;9.50;;;;;;;;;;5039714;28;20393;-77
2024/02/06 03:41:55;;;;;;;11.57;9.35;;;;;;;;;;5039701;28;20826;-78
2024/02/06 03:44:22;;;;;;;10.63;9.52;;;;;;;;;;5039545;28;20398;-78
2024/02/06 03:46:48;;;;;;;10.82;9.68;;;;;;;;;;5040736;28;20402;-79
2024/02/06 03:49:14;;;;;;;10.90;9.82;;;;;;;;;;5039646;28;20450;-78
2024/02/06 03:51:40;;;;;;;12.43;9.60;;;;;;;;;;5039520;28;20504;-77
2024/02/06 03:54:06;;;;;;;11.20;10.10;;;;;;;;;;5039529;28;20385;-78
2024/02/06 03:56:32;;;;;;;10.93;9.82;;;;;;;;;;5039268;28;20450;-78
2024/02/06 03:58:58;;;;;;;11.32;10.13;;;;;;;;;;5038915;28;20379;-79
2024/02/06 04:01:24;;;;;;;10.70;9.80;;;;;;;;;;5021419;28;20411;-78
2024/02/06 04:03:50;;;;;;;13.23;10.27;;;;;;;;;;5039302;28;20439;-77
2024/02/06 04:06:16;;;;;;;11.63;10.43;;;;;;;;;;5039065;28;20387;-78
2024/02/06 04:08:43;;;;;;;12.63;9.88;;;;;;;;;;5039103;28;20379;-78
2024/02/06 04:11:10;;;;;;;11.43;10.32;;;;;;;;;;5038890;28;20501;-78
2024/02/06 04:13:37;;;;;;;10.38;9.38;;;;;;;;;;5039156;28;20390;-78
2024/02/06 04:16:06;;;;;;;11.20;10.20;;;;;;;;;;5038682;28;20461;-78
2024/02/06 04:18:33;;;;;;;11.60;9.88;;;;;;;;;;5038688;28;20499;-78
2024/02/06 04:21:00;;;;;;;10.95;9.85;;;;;;;;;;5038580;28;20387;-78
2024/02/06 04:23:26;;;;;;;12.70;10.07;;;;;;;;;;5038488;28;20436;-78
2024/02/06 04:25:52;;;;;;;10.68;9.57;;;;;;;;;;5038808;28;20391;-78
2024/02/06 04:28:18;;;;;;;11.68;9.60;;;;;;;;;;5039176;28;20397;-78
2024/02/06 04:30:44;;;;;;;10.35;9.00;;;;;;;;;;5037202;28;20407;-78
2024/02/06 04:33:10;;;;;;;10.20;8.67;;;;;;;;;;5039091;28;20466;-78
2024/02/06 04:35:36;;;;;;;10.07;8.88;;;;;;;;;;5038637;28;20414;-78
2024/02/06 04:38:03;;;;;;;11.68;9.15;;;;;;;;;;5037992;28;20375;-78
2024/02/06 04:40:29;;;;;;;10.60;9.55;;;;;;;;;;5039030;28;20398;-78
2024/02/06 04:42:55;;;;;;;11.70;9.55;;;;;;;;;;5038759;28;20379;-78
2024/02/06 04:45:21;;;;;;;12.02;9.68;;;;;;;;;;5038829;28;20722;-79
2024/02/06 04:47:47;;;;;;;11.18;9.50;;;;;;;;;;5038270;28;20387;-79
2024/02/06 04:50:13;;;;;;;12.82;10.20;;;;;;;;;;5038738;28;20509;-79
2024/02/06 04:52:39;;;;;;;13.13;10.50;;;;;;;;;;5038604;28;20465;-78
2024/02/06 04:55:06;;;;;;;13.75;10.55;;;;;;;;;;5038019;28;20375;-78
2024/02/06 04:57:32;;;;;;;12.07;10.60;;;;;;;;;;5038283;28;20460;-78
2024/02/06 04:59:58;;;;;;;12.63;10.65;;;;;;;;;;5038021;28;20467;-78
2024/02/06 05:02:24;;;;;;;13.25;10.63;;;;;;;;;;5037970;28;20386;-78
2024/02/06 05:04:51;;;;;;;12.10;10.73;;;;;;;;;;5037971;28;20415;-78
2024/02/06 05:07:17;;;;;;;11.93;10.20;;;;;;;;;;5037370;28;20771;-78
2024/02/06 05:09:43;;;;;;;11.93;10.15;;;;;;;;;;5037842;28;20418;-78
2024/02/06 05:12:09;;;;;;;11.98;10.45;;;;;;;;;;5038273;28;20470;-78
2024/02/06 05:14:36;;;;;;;11.20;10.00;;;;;;;;;;5037146;28;20710;-78
2024/02/06 05:17:03;;;;;;;11.57;9.68;;;;;;;;;;5037774;28;20454;-78
2024/02/06 05:19:29;;;;;;;11.10;9.32;;;;;;;;;;5037361;28;20859;-77
2024/02/06 05:21:59;;;;;;;10.95;9.60;;;;;;;;;;5028714;28;20426;-78
2024/02/06 05:24:25;;;;;;;11.88;9.55;;;;;;;;;;5022846;28;20434;-78
2024/02/06 05:26:51;;;;;;;11.80;10.05;;;;;;;;;;5023483;28;20421;-79
2024/02/06 05:29:17;;;;;;;11.18;9.98;;;;;;;;;;5017668;28;20439;-78
2024/02/06 05:31:43;;;;;;;12.38;9.70;;;;;;;;;;5017536;28;20488;-78
2024/02/06 05:34:09;;;;;;;10.27;9.27;;;;;;;;;;5017708;28;20383;-78
2024/02/06 05:36:35;;;;;;;13.13;9.32;;;;;;;;;;5017614;28;20396;-78
2024/02/06 05:39:01;;;;;;;13.00;10.17;;;;;;;;;;5017615;28;20403;-78
2024/02/06 05:41:27;;;;;;;12.32;9.95;;;;;;;;;;5017137;28;20731;-77
2024/02/06 05:43:53;;;;;;;12.32;9.63;;;;;;;;;;5017826;28;20381;-78
2024/02/06 05:46:19;;;;;;;13.00;10.25;;;;;;;;;;5017838;28;20392;-78
2024/02/06 05:48:45;;;;;;;11.82;9.55;;;;;;;;;;5017378;28;20380;-78
2024/02/06 05:51:11;;;;;;;12.18;9.55;;;;;;;;;;5017619;28;20413;-79
2024/02/06 05:53:37;;;;;;;11.60;8.60;;;;;;;;;;5017173;28;20380;-78
2024/02/06 05:56:04;;;;;;;8.85;7.95;;;;;;;;;;5025424;28;20464;-78
2024/02/06 05:58:30;;;;;;;10.10;8.40;;;;;;;;;;5037178;28;20380;-78
2024/02/06 06:00:56;;;;;;;10.77;8.25;;;;;;;;;;5037009;28;20466;-78
2024/02/06 06:03:22;;;;;;;11.50;9.10;;;;;;;;;;5036786;28;20407;-78
2024/02/06 06:05:48;;;;;;;11.10;9.30;;;;;;;;;;5036859;28;20376;-78
2024/02/06 06:08:14;;;;;;;12.90;9.75;;;;;;;;;;5036778;28;20397;-78
2024/02/06 06:10:40;;;;;;;10.85;8.00;;;;;;;;;;5036818;28;20399;-79
2024/02/06 06:13:06;;;;;;;12.70;9.23;;;;;;;;;;5036580;28;20375;-78
2024/02/06 06:15:32;;;;;;;11.73;8.95;;;;;;;;;;5036835;28;20865;-79
2024/02/06 06:17:58;;;;;;;10.40;9.13;;;;;;;;;;5036180;28;20466;-78
2024/02/06 06:20:24;;;;;;;10.38;8.95;;;;;;;;;;5037104;28;20379;-78
2024/02/06 06:22:52;;;;;;;12.65;9.05;;;;;;;;;;5036470;28;20715;-78
2024/02/06 06:25:18;;;;;;;11.07;9.37;;;;;;;;;;5036905;28;20382;-78
2024/02/06 06:27:46;;;;;;;13.20;9.55;;;;;;;;;;5036460;28;20454;-78
2024/02/06 06:30:12;;;;;;;13.95;9.98;;;;;;;;;;5036287;28;20786;-77
2024/02/06 06:32:40;;;;;;;12.85;8.85;;;;;;;;;;5035995;28;20887;-79
2024/02/06 06:35:06;;;;;;;12.15;9.27;;;;;;;;;;5036038;28;20401;-79
2024/02/06 06:37:32;;;;;;;11.23;9.77;;;;;;;;;;5036814;28;20745;-78
2024/02/06 06:39:58;;;;;;;17.70;9.93;;;;;;;;;;5036465;28;20391;-77
2024/02/06 06:42:24;;;;;;;15.07;10.15;;;;;;;;;;5033946;28;20383;-78
2024/02/06 06:44:50;;;;;;;16.58;10.32;;;;;;;;;;5035308;28;20442;-80
2024/02/06 06:47:16;;;;;;;15.60;10.95;;;;;;;;;;5034438;28;20470;-78
2024/02/06 06:49:42;;;;;;;15.20;10.88;;;;;;;;;;5034697;28;20379;-80
2024/02/06 06:52:08;;;;;;;13.55;10.80;;;;;;;;;;5035243;28;20421;-80
2024/02/06 06:54:35;;;;;;;15.70;11.55;;;;;;;;;;5034998;28;20841;-79
2024/02/06 06:57:03;;;;;;;18.13;11.65;;;;;;;;;;5035487;28;20379;-77
2024/02/06 06:59:30;;;;;;;15.27;10.65;;;;;;;;;;5035321;28;20412;-80
2024/02/06 07:01:57;;;;;;;15.15;11.00;;;;;;;;;;5035889;28;20387;-78
2024/02/06 07:04:23;;;;;;;15.63;11.38;;;;;;;;;;5034904;28;20407;-77
2024/02/06 07:06:49;;;;;;;15.27;11.45;;;;;;;;;;5035190;28;20545;-80
2024/02/06 07:09:16;;;;;;;18.73;11.85;;;;;;;;;;5035137;28;20387;-80
2024/02/06 07:11:45;;;;;;;19.93;12.03;;;;;;;;;;5033866;28;20447;-80
2024/02/06 07:14:11;;;;;;;19.10;12.40;;;;;;;;;;5034588;28;20385;-79
2024/02/06 07:16:37;;;;;;;17.40;12.23;;;;;;;;;;5035647;28;20458;-80
2024/02/06 07:19:03;;;;;;;17.90;11.98;;;;;;;;;;5035110;28;20752;-81
2024/02/06 07:21:29;;;;;;;18.92;12.30;;;;;;;;;;5034991;28;20730;-80
2024/02/06 07:23:55;;;;;;;19.30;12.45;;;;;;;;;;5035603;28;20398;-81
2024/02/06 07:26:21;;;;;;;17.43;12.27;;;;;;;;;;5035182;28;20398;-81
2024/02/06 07:28:47;;;;;;;15.45;11.80;;;;;;;;;;5035175;28;20893;-82
2024/02/06 07:31:16;;;;;;;20.50;11.98;;;;;;;;;;5034584;28;20430;-81
2024/02/06 07:33:42;;;;;;;19.52;11.77;;;;;;;;;;5035425;28;20520;-81
2024/02/06 07:36:09;;;;;;;16.33;11.90;;;;;;;;;;5034903;28;20418;-81
2024/02/06 07:38:35;;;;;;;18.03;11.90;;;;;;;;;;5035015;28;20375;-81
2024/02/06 07:41:02;;;;;;;16.70;11.48;;;;;;;;;;5035275;28;20422;-80
2024/02/06 07:43:32;;;;;;;14.40;11.27;;;;;;;;;;5036362;28;20391;-79
2024/02/06 07:45:58;;;;;;;20.17;11.98;;;;;;;;;;5036308;28;20448;-79
2024/02/06 07:48:24;;;;;;;17.60;12.23;;;;;;;;;;5035977;28;20398;-79
2024/02/06 07:50:50;;;;;;;13.85;10.68;;;;;;;;;;5036458;28;20418;-79
2024/02/06 07:53:16;;;;;;;17.80;10.90;;;;;;;;;;5035344;28;20379;-80
2024/02/06 07:55:42;;;;;;;16.50;12.45;;;;;;;;;;5036245;28;20721;-80
2024/02/06 07:58:08;;;;;;;18.60;12.35;;;;;;;;;;5035583;28;20549;-79
2024/02/06 08:00:35;;;;;;;20.53;12.90;;;;;;;;;;5035480;28;20371;-79
2024/02/06 08:03:01;;;;;;;17.70;12.43;;;;;;;;;;5035536;28;20379;-79
2024/02/06 08:05:28;;;;;;;20.92;12.60;;;;;;;;;;5039381;28;20371;-80
2024/02/06 08:07:54;;;;;;;18.40;12.40;;;;;;;;;;5038875;28;20733;-81
2024/02/06 08:10:20;;;;;;;19.08;12.57;;;;;;;;;;5038657;28;20386;-80
2024/02/06 08:12:46;;;;;;;17.10;11.70;;;;;;;;;;5038174;28;20415;-80
2024/02/06 08:15:12;;;;;;;14.00;11.35;;;;;;;;;;5038524;28;20776;-81
2024/02/06 08:17:42;;;;;;;14.35;10.52;;;;;;;;;;5038619;28;20375;-81
2024/02/06 08:20:09;;;;;;;19.27;10.17;;;;;;;;;;5038288;28;20461;-80
2024/02/06 08:22:36;;;;;;;13.90;10.05;;;;;;;;;;5038265;28;20710;-80
2024/02/06 08:25:02;;;;;;;12.68;9.65;;;;;;;;;;5038259;28;20445;-80
2024/02/06 08:27:27;;;;;;;11.07;9.40;;;;;;;;;;5038548;28;20387;-80
2024/02/06 08:29:54;;;;;;;11.88;9.63;;;;;;;;;;5038577;28;20871;-79
2024/02/06 08:32:20;;;;;;;12.10;8.90;;;;;;;;;;5037783;28;20486;-80
2024/02/06 08:34:46;;;;;;;11.93;9.40;;;;;;;;;;5037721;28;20498;-79
2024/02/06 08:37:12;;;;;;;9.70;8.30;;;;;;;;;;5038271;28;20413;-80
2024/02/06 08:39:38;;;;;;;10.52;8.38;;;;;;;;;;5037788;28;20733;-80
2024/02/06 08:42:04;;;;;;;8.80;7.67;;;;;;;;;;5038860;28;20389;-81
2024/02/06 08:44:30;;;;;;;8.30;7.40;;;;;;;;;;5037557;28;20391;-79
2024/02/06 08:46:56;;;;;;;9.43;7.57;;;;;;;;;;5038531;28;20379;-79
2024/02/06 08:49:22;;;;;;;9.38;7.50;;;;;;;;;;5038043;28;20725;-80
2024/02/06 08:51:50;;;;;;;9.50;7.10;;;;;;;;;;5038548;28;20403;-81
2024/02/06 08:54:17;;;;;;;8.00;7.20;;;;;;;;;;5038266;28;20455;-81
2024/02/06 08:56:43;;;;;;;8.00;6.97;;;;;;;;;;5037941;28;20381;-80
2024/02/06 08:59:09;;;;;;;9.17;6.30;;;;;;;;;;5037608;28;20463;-80
2024/02/06 09:01:36;;;;;;;9.65;6.82;;;;;;;;;;5037404;28;20394;-79
2024/02/06 09:04:04;;;;;;;6.57;5.63;;;;;;;;;;5037550;28;20410;-79
2024/02/06 09:06:30;;;;;;;7.50;6.43;;;;;;;;;;5037395;28;20775;-79
2024/02/06 09:08:59;;;;;;;9.95;6.72;;;;;;;;;;5037343;28;20383;-80
2024/02/06 09:11:26;;;;;;;9.30;6.90;;;;;;;;;;5037101;28;20877;-79
2024/02/06 09:13:53;;;;;;;7.47;5.63;;;;;;;;;;5037018;28;20383;-80
2024/02/06 09:16:22;;;;;;;7.47;5.43;;;;;;;;;;5036640;28;20379;-80
2024/02/06 09:18:48;;;;;;;6.90;5.40;;;;;;;;;;5037248;28;20402;-80
2024/02/06 09:21:15;;;;;;;7.63;4.82;;;;;;;;;;5036479;28;20445;-80
2024/02/06 09:23:41;;;;;;;8.48;4.88;;;;;;;;;;5036561;28;20375;-79
2024/02/06 09:26:10;;;;;;;8.80;4.65;;;;;;;;;;5036644;28;20744;-80
2024/02/06 09:28:36;;;;;;;5.78;4.25;;;;;;;;;;5036183;28;20458;-81
2024/02/06 09:31:02;;;;;;;4.95;4.25;;;;;;;;;;5035946;28;20880;-81
2024/02/06 09:33:28;;;;;;;5.90;4.27;;;;;;;;;;5035558;28;20502;-80
2024/02/06 09:35:54;;;;;;;7.20;3.75;;;;;;;;;;5035794;28;20466;-80
2024/02/06 09:38:20;;;;;;;4.63;4.13;;;;;;;;;;5035928;28;20410;-81
2024/02/06 09:40:47;;;;;;;6.57;4.10;;;;;;;;;;5036519;28;20387;-80
2024/02/06 09:43:14;;;;;;;5.28;3.35;;;;;;;;;;5035867;28;20379;-79
2024/02/06 09:45:40;;;;;;;4.20;2.88;;;;;;;;;;5036059;28;20721;-80
2024/02/06 09:48:07;;;;;;;3.47;3.13;;;;;;;;;;5036557;28;20371;-79
2024/02/06 09:50:34;;;;;;;4.20;2.60;;;;;;;;;;5035270;28;20410;-79
2024/02/06 09:53:00;;;;;;;3.42;2.45;;;;;;;;;;5036459;28;20435;-79
2024/02/06 09:55:26;;;;;;;2.60;2.40;;;;;;;;;;5036108;28;20388;-79
2024/02/06 09:57:53;;;;;;;2.70;2.50;;;;;;;;;;5035979;28;20441;-80
2024/02/06 10:00:19;;;;;;;2.90;2.25;;;;;;;;;;5035896;28;20740;-79
2024/02/06 10:02:47;;;;;;;2.78;2.40;;;;;;;;;;5035960;28;20387;-80
2024/02/06 10:05:17;;;;;;;4.67;2.30;;;;;;;;;;5036286;28;20871;-79
2024/02/06 10:07:47;;;;;;;2.35;2.05;;;;;;;;;;5035887;28;20401;-80
2024/02/06 10:10:14;;;;;;;2.72;2.40;;;;;;;;;;5036277;28;20756;-80
2024/02/06 10:12:40;;;;;;;3.40;2.45;;;;;;;;;;5035864;28;20410;-79
2024/02/06 10:15:08;;;;;;;3.22;2.40;;;;;;;;;;5036138;28;20430;-79
2024/02/06 10:17:39;;;;;;;2.30;2.10;;;;;;;;;;5036479;28;20809;-79
2024/02/06 10:20:06;;;;;;;3.33;2.25;;;;;;;;;;5034971;28;20868;-80
2024/02/06 10:22:32;;;;;;;2.72;2.10;;;;;;;;;;5036110;28;20390;-80
2024/02/06 10:25:03;;;;;;;3.00;2.28;;;;;;;;;;5035883;28;20379;-79
2024/02/06 10:27:29;;;;;;;3.50;2.30;;;;;;;;;;5034285;28;20398;-79
2024/02/06 10:29:59;;;;;;;2.97;1.90;;;;;;;;;;5034913;28;20391;-80
2024/02/06 10:32:32;;;;;;;2.67;2.13;;;;;;;;;;5035151;28;20495;-79
2024/02/06 10:35:02;;;;;;;3.50;2.22;;;;;;;;;;5033967;28;20405;-79
2024/02/06 10:37:28;;;;;;;3.60;2.27;;;;;;;;;;5035105;28;20379;-79
2024/02/06 10:39:54;;;;;;;2.30;2.10;;;;;;;;;;5035370;28;20375;-79
2024/02/06 10:42:20;;;;;;;2.83;2.20;;;;;;;;;;5035279;28;20863;-79
2024/02/06 10:44:46;;;;;;;2.38;2.13;;;;;;;;;;5035189;28;20371;-80
2024/02/06 10:47:15;;;;;;;2.27;2.07;;;;;;;;;;5035044;28;20478;-79
2024/02/06 10:49:41;;;;;;;2.15;1.90;;;;;;;;;;5034774;28;20764;-79
2024/02/06 10:52:08;;;;;;;2.38;2.00;;;;;;;;;;5035295;28;20468;-80
2024/02/06 10:54:37;;;;;;;2.07;1.90;;;;;;;;;;5035033;28;20713;-79
2024/02/06 10:57:06;;;;;;;3.95;1.67;;;;;;;;;;5034563;28;20509;-79
2024/02/06 10:59:42;;;;;;;1.83;1.57;;;;;;;;;;5035035;28;20493;-80
2024/02/06 11:02:14;;;;;;;3.38;1.77;;;;;;;;;;5016521;28;20383;-80
2024/02/06 11:04:40;;;;;;;4.83;1.60;;;;;;;;;;5034690;28;20489;-80
2024/02/06 11:07:08;;;;;;;2.15;1.67;;;;;;;;;;5034563;28;20774;-80
2024/02/06 11:09:38;;;;;;;2.58;1.42;;;;;;;;;;5034522;28;20434;-80
2024/02/06 11:12:07;;;;;;;3.10;1.58;;;;;;;;;;5034644;28;20466;-80
2024/02/06 11:14:35;;;;;;;1.63;1.52;;;;;;;;;;5034546;28;21025;-80
2024/02/06 11:17:02;;;;;;;1.20;1.10;;;;;;;;;;5034631;28;20390;-80
2024/02/06 11:19:32;;;;;;;1.63;1.37;;;;;;;;;;5034913;28;20444;-80
2024/02/06 11:22:09;;;;;;;1.38;1.25;;;;;;;;;;5034757;28;20749;-80
2024/02/06 11:24:36;;;;;;;1.20;1.10;;;;;;;;;;5035115;28;20400;-80
2024/02/06 11:27:03;;;;;;;1.00;0.90;;;;;;;;;;5034579;28;20383;-80
2024/02/06 11:29:29;;;;;;;3.25;1.20;;;;;;;;;;5034227;28;20856;-80
2024/02/06 11:31:56;;;;;;;1.23;0.90;;;;;;;;;;5034861;28;20402;-80
2024/02/06 11:34:22;;;;;;;1.15;0.90;;;;;;;;;;5034408;28;20752;-79
2024/02/06 11:36:48;;;;;;;2.40;0.90;;;;;;;;;;5034434;28;20399;-79
2024/02/06 11:39:17;;;;;;;1.08;0.80;;;;;;;;;;5035598;28;20381;-81
2024/02/06 11:41:43;;;;;;;1.25;0.90;;;;;;;;;;5038033;28;20402;-80
2024/02/06 11:44:10;;;;;;;1.10;0.80;;;;;;;;;;5037717;28;20390;-80
2024/02/06 11:46:43;;;;;;;1.35;0.82;;;;;;;;;;5036812;28;20379;-79
2024/02/06 11:49:08;;;;;;;2.30;1.15;;;;;;;;;;5037997;28;20383;-80
2024/02/06 11:51:35;;;;;;;1.98;1.38;;;;;;;;;;5038321;28;20453;-80
2024/02/06 11:54:13;;;;;;;1.05;0.80;;;;;;;;;;5037296;28;20375;-80
2024/02/06 11:56:40;;;;;;;0.80;0.80;;;;;;;;;;5038436;28;20379;-80
2024/02/06 11:59:06;;;;;;;2.40;0.80;;;;;;;;;;5038014;28;20375;-80
2024/02/06 12:01:33;;;;;;;0.77;0.70;;;;;;;;;;5037746;28;20880;-80
2024/02/06 12:04:02;;;;;;;2.80;0.60;;;;;;;;;;5037890;28;20407;-79
2024/02/06 12:06:27;;;;;;;0.93;0.83;;;;;;;;;;5038040;28;20428;-80
2024/02/06 12:09:01;;;;;;;0.75;0.70;;;;;;;;;;5037050;28;20387;-77
2024/02/06 12:11:27;;;;;;;1.23;0.70;;;;;;;;;;5036820;28;20407;-80
2024/02/06 12:13:53;;;;;;;0.88;0.60;;;;;;;;;;5038194;28;20442;-80
2024/02/06 12:16:19;;;;;;;1.10;0.63;;;;;;;;;;5038748;28;20410;-79
2024/02/06 12:18:50;;;;;;;0.77;0.75;;;;;;;;;;5037874;28;20375;-80
2024/02/06 12:21:22;;;;;;;1.50;0.60;;;;;;;;;;5037475;28;20857;-79
2024/02/06 12:23:48;;;;;;;2.03;0.68;;;;;;;;;;5036754;28;20748;-79
2024/02/06 12:26:23;;;;;;;1.30;0.60;;;;;;;;;;5037780;28;20415;-80
2024/02/06 12:28:59;;;;;;;1.58;0.90;;;;;;;;;;5037498;28;20782;-80
2024/02/06 12:31:27;;;;;;;0.95;0.73;;;;;;;;;;5037002;28;20456;-80
2024/02/06 12:33:53;;;;;;;1.55;0.90;;;;;;;;;;5037346;28;20424;-80
2024/02/06 12:36:19;;;;;;;2.00;0.90;;;;;;;;;;5037547;28;20440;-80
2024/02/06 12:38:50;;;;;;;0.75;0.70;;;;;;;;;;5037639;28;20405;-80
2024/02/06 12:41:15;;;;;;;1.00;0.90;;;;;;;;;;5038075;28;20392;-80
2024/02/06 12:43:42;;;;;;;0.60;0.60;;;;;;;;;;5038187;28;20737;-80
2024/02/06 12:46:08;;;;;;;0.85;0.73;;;;;;;;;;5037804;28;20375;-80
2024/02/06 12:48:35;;;;;;;1.10;0.60;;;;;;;;;;5036184;28;20379;-80
2024/02/06 12:51:01;;;;;;;1.30;0.60;;;;;;;;;;5036116;28;20540;-80
2024/02/06 12:53:28;;;;;;;0.80;0.60;;;;;;;;;;5037283;28;20386;-80
2024/02/06 12:55:54;;;;;;;1.50;0.50;;;;;;;;;;5037747;28;20745;-80
2024/02/06 12:58:20;;;;;;;0.60;0.60;;;;;;;;;;5037105;28;20413;-80
2024/02/06 13:00:53;;;;;;;0.60;0.60;;;;;;;;;;5037419;28;20383;-80
2024/02/06 13:03:19;;;;;;;0.82;0.60;;;;;;;;;;5036034;28;20460;-80
2024/02/06 13:05:53;;;;;;;0.60;0.47;;;;;;;;;;5037316;28;20442;-80
2024/02/06 13:08:19;;;;;;;1.98;0.50;;;;;;;;;;5037164;28;20426;-80
2024/02/06 13:10:45;;;;;;;0.45;0.45;;;;;;;;;;5037244;28;20776;-80
2024/02/06 13:13:13;;;;;;;1.80;0.50;;;;;;;;;;5037009;28;20383;-80
2024/02/06 13:15:39;;;;;;;0.50;0.50;;;;;;;;;;5036925;28;20375;-80
2024/02/06 13:18:05;;;;;;;1.40;0.52;;;;;;;;;;5036858;28;20899;-80
2024/02/06 13:20:32;;;;;;;0.55;0.50;;;;;;;;;;5037231;28;20403;-80
2024/02/06 13:23:11;;;;;;;1.67;0.55;;;;;;;;;;5037198;28;20390;-81
2024/02/06 13:25:38;;;;;;;1.10;0.60;;;;;;;;;;5037045;28;20394;-80
2024/02/06 13:28:04;;;;;;;2.88;0.52;;;;;;;;;;5037059;28;20383;-80
2024/02/06 13:30:31;;;;;;;0.65;0.60;;;;;;;;;;5037164;28;20780;-81
2024/02/06 13:32:57;;;;;;;1.40;0.40;;;;;;;;;;5037208;28;20525;-81
2024/02/06 13:35:23;;;;;;;1.15;0.60;;;;;;;;;;5036747;28;20386;-80
2024/02/06 13:37:49;;;;;;;1.10;0.60;;;;;;;;;;5037276;28;20379;-80
2024/02/06 13:40:15;;;;;;;0.80;0.60;;;;;;;;;;5036843;28;20383;-80
2024/02/06 13:42:41;;;;;;;1.10;0.50;;;;;;;;;;5036482;28;20417;-80
2024/02/06 13:45:07;;;;;;;0.80;0.60;;;;;;;;;;5036067;28;20475;-80
2024/02/06 13:47:34;;;;;;;0.77;0.50;;;;;;;;;;5035391;28;20391;-80
2024/02/06 13:50:00;;;;;;;0.75;0.63;;;;;;;;;;5036250;28;20379;-81
2024/02/06 13:52:26;;;;;;;1.23;0.47;;;;;;;;;;5035436;28;20406;-80
2024/02/06 13:54:52;;;;;;;0.50;0.50;;;;;;;;;;5035735;28;20387;-80
2024/02/06 13:57:19;;;;;;;0.50;0.50;;;;;;;;;;5035051;28;20375;-80
2024/02/06 13:59:45;;;;;;;1.10;0.53;;;;;;;;;;5035499;28;20407;-80
2024/02/06 14:02:11;;;;;;;1.57;0.60;;;;;;;;;;5034627;28;20741;-80
2024/02/06 14:04:39;;;;;;;1.40;0.60;;;;;;;;;;5034937;28;20419;-80
2024/02/06 14:07:05;;;;;;;1.38;0.52;;;;;;;;;;5035962;28;20394;-80
2024/02/06 14:09:31;;;;;;;0.73;0.40;;;;;;;;;;5035291;28;20383;-80
2024/02/06 14:11:57;;;;;;;0.60;0.50;;;;;;;;;;5034873;28;20816;-80
2024/02/06 14:14:29;;;;;;;0.90;0.40;;;;;;;;;;5035336;28;20390;-80
2024/02/06 14:16:55;;;;;;;1.07;0.60;;;;;;;;;;5035667;28;20383;-80
2024/02/06 14:19:21;;;;;;;1.10;0.80;;;;;;;;;;5035603;28;20386;-81
2024/02/06 14:21:47;;;;;;;1.38;0.60;;;;;;;;;;5035708;28;20438;-80
2024/02/06 14:24:14;;;;;;;0.98;0.47;;;;;;;;;;5035170;28;20426;-80
2024/02/06 14:26:40;;;;;;;0.77;0.50;;;;;;;;;;5035251;28;20383;-80
2024/02/06 14:29:07;;;;;;;0.60;0.60;;;;;;;;;;5035423;28;20422;-80